Bentley, Louisiana
Current Conditions -  °F | °C
As of 10:53 AM on Sunday 21 Dec 2014 (Local Time) from KAEX Reporting Station
Clear Clear  
Wind Chill: 53°   Ceiling: Unl
Heat Index: 53°   Visibility: 10mi
Dew Point: 46°   Wind: 7mph
Humidity: 77%   Direction: NA
Pressure: 30.11"   Gusts: NA
Location:  31.52°N, 92.49°W
Report Text: KAEX 211653Z VRB06KT 10SM CLR 12/08 A3011 RMK AO2 SLP201 T01170078
Loading
Personal Weather Stations






























Interactive Weather Map New forecast layout! Learn more

10-Day Weather Forecast

Advertisements
Track Severe Weather on mobile